sensor_id;sensor_type;location;lat;lon;timestamp;P1;durP1;ratioP1;P2;durP2;ratioP2
10479;SDS011;12789;42.610;23.040;2023-09-08T00:01:22;5.72;;;5.10;;
10479;SDS011;12789;42.610;23.040;2023-09-08T00:04:48;7.53;;;5.65;;
10479;SDS011;12789;42.610;23.040;2023-09-08T00:08:22;7.75;;;6.47;;
10479;SDS011;12789;42.610;23.040;2023-09-08T00:11:50;8.68;;;6.72;;
10479;SDS011;12789;42.610;23.040;2023-09-08T00:15:18;9.05;;;7.15;;
10479;SDS011;12789;42.610;23.040;2023-09-08T00:18:43;7.60;;;6.90;;
10479;SDS011;12789;42.610;23.040;2023-09-08T00:22:10;10.07;;;6.88;;
10479;SDS011;12789;42.610;23.040;2023-09-08T00:25:38;9.55;;;7.03;;
10479;SDS011;12789;42.610;23.040;2023-09-08T00:29:06;8.27;;;6.78;;
10479;SDS011;12789;42.610;23.040;2023-09-08T00:32:38;6.95;;;6.18;;
10479;SDS011;12789;42.610;23.040;2023-09-08T00:36:04;7.35;;;6.57;;
10479;SDS011;12789;42.610;23.040;2023-09-08T00:39:34;6.03;;;5.53;;
10479;SDS011;12789;42.610;23.040;2023-09-08T00:43:00;5.82;;;5.32;;
10479;SDS011;12789;42.610;23.040;2023-09-08T00:46:27;6.53;;;5.20;;
10479;SDS011;12789;42.610;23.040;2023-09-08T00:49:53;7.15;;;5.65;;
10479;SDS011;12789;42.610;23.040;2023-09-08T00:53:20;8.90;;;5.45;;
10479;SDS011;12789;42.610;23.040;2023-09-08T00:56:46;6.03;;;5.43;;
10479;SDS011;12789;42.610;23.040;2023-09-08T01:00:14;8.27;;;5.18;;
10479;SDS011;12789;42.610;23.040;2023-09-08T01:03:41;6.82;;;5.63;;
10479;SDS011;12789;42.610;23.040;2023-09-08T01:07:07;7.95;;;5.55;;
10479;SDS011;12789;42.610;23.040;2023-09-08T01:10:34;7.97;;;5.47;;
10479;SDS011;12789;42.610;23.040;2023-09-08T01:14:00;5.63;;;5.00;;
10479;SDS011;12789;42.610;23.040;2023-09-08T01:17:25;5.72;;;5.22;;
10479;SDS011;12789;42.610;23.040;2023-09-08T01:21:05;5.40;;;4.93;;
10479;SDS011;12789;42.610;23.040;2023-09-08T01:28:53;5.35;;;4.85;;
10479;SDS011;12789;42.610;23.040;2023-09-08T01:32:20;5.68;;;4.55;;
10479;SDS011;12789;42.610;23.040;2023-09-08T01:35:46;7.93;;;5.00;;
10479;SDS011;12789;42.610;23.040;2023-09-08T01:39:12;7.30;;;4.78;;
10479;SDS011;12789;42.610;23.040;2023-09-08T01:42:40;5.15;;;4.63;;
10479;SDS011;12789;42.610;23.040;2023-09-08T01:46:06;7.10;;;4.90;;
10479;SDS011;12789;42.610;23.040;2023-09-08T01:49:32;10.10;;;5.45;;
10479;SDS011;12789;42.610;23.040;2023-09-08T01:52:58;6.18;;;5.22;;
10479;SDS011;12789;42.610;23.040;2023-09-08T01:56:24;5.75;;;5.28;;
10479;SDS011;12789;42.610;23.040;2023-09-08T01:59:52;7.00;;;5.65;;
10479;SDS011;12789;42.610;23.040;2023-09-08T02:03:18;10.63;;;5.88;;
10479;SDS011;12789;42.610;23.040;2023-09-08T02:06:43;6.10;;;5.40;;
10479;SDS011;12789;42.610;23.040;2023-09-08T02:10:09;6.38;;;5.78;;
10479;SDS011;12789;42.610;23.040;2023-09-08T02:13:37;9.35;;;6.28;;
10479;SDS011;12789;42.610;23.040;2023-09-08T02:17:05;6.53;;;5.88;;
10479;SDS011;12789;42.610;23.040;2023-09-08T02:20:32;6.93;;;6.22;;
10479;SDS011;12789;42.610;23.040;2023-09-08T02:23:58;6.70;;;6.10;;
10479;SDS011;12789;42.610;23.040;2023-09-08T02:27:26;6.55;;;5.93;;
10479;SDS011;12789;42.610;23.040;2023-09-08T02:30:52;7.25;;;5.78;;
10479;SDS011;12789;42.610;23.040;2023-09-08T02:34:19;7.15;;;5.70;;
10479;SDS011;12789;42.610;23.040;2023-09-08T02:37:45;8.43;;;5.78;;
10479;SDS011;12789;42.610;23.040;2023-09-08T02:41:12;8.23;;;6.35;;
10479;SDS011;12789;42.610;23.040;2023-09-08T02:44:38;8.82;;;6.47;;
10479;SDS011;12789;42.610;23.040;2023-09-08T02:48:04;7.20;;;5.88;;
10479;SDS011;12789;42.610;23.040;2023-09-08T02:51:33;7.13;;;6.00;;
10479;SDS011;12789;42.610;23.040;2023-09-08T02:54:58;12.55;;;6.85;;
10479;SDS011;12789;42.610;23.040;2023-09-08T02:58:25;7.47;;;5.97;;
10479;SDS011;12789;42.610;23.040;2023-09-08T03:01:50;6.68;;;5.32;;
10479;SDS011;12789;42.610;23.040;2023-09-08T03:05:16;6.47;;;5.25;;
10479;SDS011;12789;42.610;23.040;2023-09-08T03:08:45;9.23;;;5.90;;
10479;SDS011;12789;42.610;23.040;2023-09-08T03:12:12;6.05;;;5.47;;
10479;SDS011;12789;42.610;23.040;2023-09-08T03:15:39;8.25;;;5.80;;
10479;SDS011;12789;42.610;23.040;2023-09-08T03:19:04;6.38;;;5.60;;
10479;SDS011;12789;42.610;23.040;2023-09-08T03:22:34;6.95;;;5.78;;
10479;SDS011;12789;42.610;23.040;2023-09-08T03:26:01;6.43;;;5.75;;
10479;SDS011;12789;42.610;23.040;2023-09-08T03:29:27;6.30;;;5.40;;
10479;SDS011;12789;42.610;23.040;2023-09-08T03:32:53;11.40;;;5.47;;
10479;SDS011;12789;42.610;23.040;2023-09-08T03:36:20;7.45;;;5.93;;
10479;SDS011;12789;42.610;23.040;2023-09-08T03:39:48;8.25;;;5.95;;
10479;SDS011;12789;42.610;23.040;2023-09-08T03:43:16;7.55;;;5.97;;
10479;SDS011;12789;42.610;23.040;2023-09-08T03:46:42;6.13;;;5.53;;
10479;SDS011;12789;42.610;23.040;2023-09-08T03:50:08;7.57;;;5.70;;
10479;SDS011;12789;42.610;23.040;2023-09-08T03:53:34;7.32;;;5.70;;
10479;SDS011;12789;42.610;23.040;2023-09-08T03:57:02;7.18;;;5.90;;
10479;SDS011;12789;42.610;23.040;2023-09-08T04:00:30;7.15;;;5.57;;
10479;SDS011;12789;42.610;23.040;2023-09-08T04:03:55;7.40;;;5.70;;
10479;SDS011;12789;42.610;23.040;2023-09-08T04:07:21;6.95;;;6.13;;
10479;SDS011;12789;42.610;23.040;2023-09-08T04:10:46;9.55;;;6.38;;
10479;SDS011;12789;42.610;23.040;2023-09-08T04:14:12;11.70;;;6.13;;
10479;SDS011;12789;42.610;23.040;2023-09-08T04:17:39;9.15;;;7.45;;
10479;SDS011;12789;42.610;23.040;2023-09-08T04:21:05;9.45;;;6.88;;
10479;SDS011;12789;42.610;23.040;2023-09-08T04:24:34;7.32;;;6.63;;
10479;SDS011;12789;42.610;23.040;2023-09-08T04:28:01;9.68;;;6.53;;
10479;SDS011;12789;42.610;23.040;2023-09-08T04:31:26;7.65;;;6.85;;
10479;SDS011;12789;42.610;23.040;2023-09-08T04:34:53;10.05;;;7.07;;
10479;SDS011;12789;42.610;23.040;2023-09-08T04:38:21;11.18;;;7.82;;
10479;SDS011;12789;42.610;23.040;2023-09-08T04:41:50;13.27;;;7.95;;
10479;SDS011;12789;42.610;23.040;2023-09-08T04:45:19;11.57;;;7.93;;
10479;SDS011;12789;42.610;23.040;2023-09-08T04:48:44;12.43;;;7.88;;
10479;SDS011;12789;42.610;23.040;2023-09-08T04:52:14;12.80;;;8.30;;
10479;SDS011;12789;42.610;23.040;2023-09-08T04:55:39;10.38;;;7.47;;
10479;SDS011;12789;42.610;23.040;2023-09-08T04:59:05;11.88;;;7.78;;
10479;SDS011;12789;42.610;23.040;2023-09-08T05:02:31;9.68;;;7.32;;
10479;SDS011;12789;42.610;23.040;2023-09-08T05:05:57;9.27;;;7.10;;
10479;SDS011;12789;42.610;23.040;2023-09-08T05:09:25;12.05;;;6.68;;
10479;SDS011;12789;42.610;23.040;2023-09-08T05:12:51;9.48;;;7.28;;
10479;SDS011;12789;42.610;23.040;2023-09-08T05:16:16;6.93;;;6.32;;
10479;SDS011;12789;42.610;23.040;2023-09-08T05:19:42;10.60;;;6.38;;
10479;SDS011;12789;42.610;23.040;2023-09-08T05:23:08;7.18;;;6.25;;
10479;SDS011;12789;42.610;23.040;2023-09-08T05:26:37;8.50;;;6.45;;
10479;SDS011;12789;42.610;23.040;2023-09-08T05:30:03;7.22;;;6.03;;
10479;SDS011;12789;42.610;23.040;2023-09-08T05:33:29;7.72;;;6.22;;
10479;SDS011;12789;42.610;23.040;2023-09-08T05:36:55;8.95;;;5.93;;
10479;SDS011;12789;42.610;23.040;2023-09-08T05:40:21;7.05;;;5.53;;
10479;SDS011;12789;42.610;23.040;2023-09-08T05:43:48;9.57;;;5.72;;
10479;SDS011;12789;42.610;23.040;2023-09-08T05:47:14;6.57;;;5.90;;
10479;SDS011;12789;42.610;23.040;2023-09-08T05:50:39;10.20;;;5.80;;
10479;SDS011;12789;42.610;23.040;2023-09-08T05:54:07;8.07;;;5.32;;
10479;SDS011;12789;42.610;23.040;2023-09-08T05:57:34;8.88;;;5.57;;
10479;SDS011;12789;42.610;23.040;2023-09-08T06:01:04;11.35;;;4.10;;
10479;SDS011;12789;42.610;23.040;2023-09-08T06:04:30;7.78;;;4.30;;
10479;SDS011;12789;42.610;23.040;2023-09-08T06:07:55;7.18;;;3.80;;
10479;SDS011;12789;42.610;23.040;2023-09-08T06:11:21;10.82;;;3.80;;
10479;SDS011;12789;42.610;23.040;2023-09-08T06:14:47;9.15;;;4.13;;
10479;SDS011;12789;42.610;23.040;2023-09-08T06:18:15;4.13;;;3.72;;
10479;SDS011;12789;42.610;23.040;2023-09-08T06:21:41;5.45;;;4.43;;
10479;SDS011;12789;42.610;23.040;2023-09-08T06:25:16;4.70;;;4.07;;
10479;SDS011;12789;42.610;23.040;2023-09-08T06:28:45;4.03;;;3.60;;
10479;SDS011;12789;42.610;23.040;2023-09-08T06:32:11;9.45;;;4.53;;
10479;SDS011;12789;42.610;23.040;2023-09-08T06:35:39;4.28;;;3.70;;
10479;SDS011;12789;42.610;23.040;2023-09-08T06:39:06;4.78;;;3.45;;
10479;SDS011;12789;42.610;23.040;2023-09-08T06:42:32;7.75;;;4.75;;
10479;SDS011;12789;42.610;23.040;2023-09-08T06:45:58;3.67;;;3.35;;
10479;SDS011;12789;42.610;23.040;2023-09-08T06:49:27;4.00;;;3.60;;
10479;SDS011;12789;42.610;23.040;2023-09-08T06:52:56;7.80;;;3.92;;
10479;SDS011;12789;42.610;23.040;2023-09-08T06:56:25;5.50;;;4.22;;
10479;SDS011;12789;42.610;23.040;2023-09-08T06:59:51;7.03;;;4.07;;
10479;SDS011;12789;42.610;23.040;2023-09-08T07:03:19;8.35;;;4.22;;
10479;SDS011;12789;42.610;23.040;2023-09-08T07:06:45;6.13;;;3.80;;
10479;SDS011;12789;42.610;23.040;2023-09-08T07:10:15;9.85;;;3.83;;
10479;SDS011;12789;42.610;23.040;2023-09-08T07:13:41;3.35;;;3.10;;
10479;SDS011;12789;42.610;23.040;2023-09-08T07:17:07;6.22;;;3.08;;
10479;SDS011;12789;42.610;23.040;2023-09-08T07:20:34;3.55;;;2.80;;
10479;SDS011;12789;42.610;23.040;2023-09-08T07:24:01;4.15;;;2.85;;
10479;SDS011;12789;42.610;23.040;2023-09-08T07:27:29;6.25;;;3.28;;
10479;SDS011;12789;42.610;23.040;2023-09-08T07:31:00;4.22;;;3.10;;
10479;SDS011;12789;42.610;23.040;2023-09-08T07:34:26;2.97;;;2.67;;
10479;SDS011;12789;42.610;23.040;2023-09-08T07:37:52;3.40;;;2.80;;
10479;SDS011;12789;42.610;23.040;2023-09-08T07:41:17;4.18;;;2.90;;
10479;SDS011;12789;42.610;23.040;2023-09-08T07:44:44;3.75;;;3.40;;
10479;SDS011;12789;42.610;23.040;2023-09-08T07:48:10;5.00;;;3.15;;
10479;SDS011;12789;42.610;23.040;2023-09-08T07:51:36;8.43;;;2.55;;
10479;SDS011;12789;42.610;23.040;2023-09-08T07:55:02;3.08;;;2.83;;
10479;SDS011;12789;42.610;23.040;2023-09-08T07:58:29;4.95;;;2.88;;
10479;SDS011;12789;42.610;23.040;2023-09-08T08:01:56;8.38;;;2.70;;
10479;SDS011;12789;42.610;23.040;2023-09-08T08:05:22;5.30;;;2.75;;
10479;SDS011;12789;42.610;23.040;2023-09-08T08:08:48;3.30;;;3.00;;
10479;SDS011;12789;42.610;23.040;2023-09-08T08:12:14;4.60;;;2.67;;
10479;SDS011;12789;42.610;23.040;2023-09-08T08:15:40;4.63;;;2.53;;
10479;SDS011;12789;42.610;23.040;2023-09-08T08:19:07;3.70;;;2.50;;
10479;SDS011;12789;42.610;23.040;2023-09-08T08:22:36;2.70;;;2.50;;
10479;SDS011;12789;42.610;23.040;2023-09-08T08:26:03;6.43;;;2.30;;
10479;SDS011;12789;42.610;23.040;2023-09-08T08:29:30;4.38;;;2.90;;
10479;SDS011;12789;42.610;23.040;2023-09-08T08:32:57;3.55;;;2.47;;
10479;SDS011;12789;42.610;23.040;2023-09-08T08:36:24;3.55;;;2.63;;
10479;SDS011;12789;42.610;23.040;2023-09-08T08:39:50;3.47;;;3.05;;
10479;SDS011;12789;42.610;23.040;2023-09-08T08:43:15;6.80;;;3.00;;
10479;SDS011;12789;42.610;23.040;2023-09-08T08:46:42;3.03;;;2.72;;
10479;SDS011;12789;42.610;23.040;2023-09-08T08:50:09;3.63;;;2.55;;
10479;SDS011;12789;42.610;23.040;2023-09-08T08:53:39;6.57;;;2.53;;
10479;SDS011;12789;42.610;23.040;2023-09-08T08:57:06;8.10;;;3.47;;
10479;SDS011;12789;42.610;23.040;2023-09-08T09:00:34;3.35;;;2.90;;
10479;SDS011;12789;42.610;23.040;2023-09-08T09:04:00;4.05;;;2.55;;
10479;SDS011;12789;42.610;23.040;2023-09-08T09:07:26;2.53;;;2.20;;
10479;SDS011;12789;42.610;23.040;2023-09-08T09:10:55;4.68;;;2.60;;
10479;SDS011;12789;42.610;23.040;2023-09-08T09:14:20;3.00;;;2.50;;
10479;SDS011;12789;42.610;23.040;2023-09-08T09:18:01;4.18;;;2.65;;
10479;SDS011;12789;42.610;23.040;2023-09-08T09:21:41;6.45;;;4.07;;
10479;SDS011;12789;42.610;23.040;2023-09-08T09:25:08;3.05;;;2.75;;
10479;SDS011;12789;42.610;23.040;2023-09-08T09:28:40;3.50;;;2.67;;
10479;SDS011;12789;42.610;23.040;2023-09-08T09:32:12;2.63;;;2.33;;
10479;SDS011;12789;42.610;23.040;2023-09-08T09:35:40;2.45;;;2.25;;
10479;SDS011;12789;42.610;23.040;2023-09-08T09:39:10;4.40;;;2.70;;
10479;SDS011;12789;42.610;23.040;2023-09-08T09:42:39;2.28;;;2.17;;
10479;SDS011;12789;42.610;23.040;2023-09-08T09:46:06;2.38;;;2.15;;
10479;SDS011;12789;42.610;23.040;2023-09-08T09:49:35;3.80;;;2.20;;
10479;SDS011;12789;42.610;23.040;2023-09-08T09:53:08;2.75;;;2.55;;
10479;SDS011;12789;42.610;23.040;2023-09-08T09:56:35;2.55;;;2.33;;
10479;SDS011;12789;42.610;23.040;2023-09-08T10:00:06;3.15;;;2.60;;
10479;SDS011;12789;42.610;23.040;2023-09-08T10:03:32;6.13;;;3.00;;
10479;SDS011;12789;42.610;23.040;2023-09-08T10:07:00;4.28;;;2.80;;
10479;SDS011;12789;42.610;23.040;2023-09-08T10:10:26;3.40;;;2.88;;
10479;SDS011;12789;42.610;23.040;2023-09-08T10:13:55;5.13;;;2.70;;
10479;SDS011;12789;42.610;23.040;2023-09-08T10:17:26;8.63;;;2.40;;
10479;SDS011;12789;42.610;23.040;2023-09-08T10:20:55;3.45;;;2.83;;
10479;SDS011;12789;42.610;23.040;2023-09-08T10:24:29;5.45;;;3.00;;
10479;SDS011;12789;42.610;23.040;2023-09-08T10:28:04;3.60;;;2.70;;
10479;SDS011;12789;42.610;23.040;2023-09-08T10:31:30;6.32;;;2.90;;
10479;SDS011;12789;42.610;23.040;2023-09-08T10:34:59;2.90;;;2.60;;
10479;SDS011;12789;42.610;23.040;2023-09-08T10:38:29;5.90;;;3.25;;
10479;SDS011;12789;42.610;23.040;2023-09-08T10:45:41;5.40;;;2.60;;
10479;SDS011;12789;42.610;23.040;2023-09-08T10:49:08;3.70;;;2.92;;
10479;SDS011;12789;42.610;23.040;2023-09-08T10:52:34;2.63;;;2.47;;
10479;SDS011;12789;42.610;23.040;2023-09-08T10:56:00;6.45;;;3.00;;
10479;SDS011;12789;42.610;23.040;2023-09-08T10:59:28;7.35;;;2.92;;
10479;SDS011;12789;42.610;23.040;2023-09-08T11:02:54;4.18;;;2.90;;
10479;SDS011;12789;42.610;23.040;2023-09-08T11:06:21;3.03;;;2.67;;
10479;SDS011;12789;42.610;23.040;2023-09-08T11:09:47;6.85;;;2.80;;
10479;SDS011;12789;42.610;23.040;2023-09-08T11:13:12;4.20;;;2.63;;
10479;SDS011;12789;42.610;23.040;2023-09-08T11:16:39;10.13;;;2.83;;
10479;SDS011;12789;42.610;23.040;2023-09-08T11:20:07;4.40;;;2.40;;
10479;SDS011;12789;42.610;23.040;2023-09-08T11:23:36;5.80;;;2.88;;
10479;SDS011;12789;42.610;23.040;2023-09-08T11:27:02;3.10;;;2.90;;
10479;SDS011;12789;42.610;23.040;2023-09-08T11:30:28;4.60;;;2.50;;
10479;SDS011;12789;42.610;23.040;2023-09-08T11:33:54;2.75;;;2.35;;
10479;SDS011;12789;42.610;23.040;2023-09-08T11:37:20;4.55;;;2.80;;
10479;SDS011;12789;42.610;23.040;2023-09-08T11:40:47;4.72;;;2.60;;
10479;SDS011;12789;42.610;23.040;2023-09-08T11:44:15;3.33;;;2.72;;
10479;SDS011;12789;42.610;23.040;2023-09-08T11:47:43;2.95;;;2.42;;
10479;SDS011;12789;42.610;23.040;2023-09-08T11:51:08;13.27;;;3.42;;
10479;SDS011;12789;42.610;23.040;2023-09-08T11:54:34;5.10;;;4.65;;
10479;SDS011;12789;42.610;23.040;2023-09-08T11:58:03;3.63;;;2.22;;
10479;SDS011;12789;42.610;23.040;2023-09-08T12:01:29;5.30;;;2.75;;
10479;SDS011;12789;42.610;23.040;2023-09-08T12:04:55;6.28;;;2.83;;
10479;SDS011;12789;42.610;23.040;2023-09-08T12:08:20;3.53;;;2.60;;
10479;SDS011;12789;42.610;23.040;2023-09-08T12:11:46;8.48;;;3.30;;
10479;SDS011;12789;42.610;23.040;2023-09-08T12:18:55;6.65;;;3.05;;
10479;SDS011;12789;42.610;23.040;2023-09-08T12:22:21;6.18;;;2.63;;
10479;SDS011;12789;42.610;23.040;2023-09-08T12:25:47;4.38;;;3.92;;
10479;SDS011;12789;42.610;23.040;2023-09-08T12:29:14;4.85;;;3.08;;
10479;SDS011;12789;42.610;23.040;2023-09-08T12:32:44;7.65;;;2.97;;
10479;SDS011;12789;42.610;23.040;2023-09-08T12:36:12;4.05;;;2.53;;
10479;SDS011;12789;42.610;23.040;2023-09-08T12:39:40;18.63;;;3.42;;
10479;SDS011;12789;42.610;23.040;2023-09-08T12:42:37;7.30;;;2.88;;
10479;SDS011;12789;42.610;23.040;2023-09-08T12:46:05;5.20;;;3.20;;
10479;SDS011;12789;42.610;23.040;2023-09-08T12:49:34;4.07;;;3.28;;
10479;SDS011;12789;42.610;23.040;2023-09-08T12:53:00;5.07;;;2.88;;
10479;SDS011;12789;42.610;23.040;2023-09-08T12:56:26;7.63;;;2.60;;
10479;SDS011;12789;42.610;23.040;2023-09-08T12:59:54;5.63;;;2.50;;
10479;SDS011;12789;42.610;23.040;2023-09-08T13:03:22;4.68;;;3.53;;
10479;SDS011;12789;42.610;23.040;2023-09-08T13:06:49;5.22;;;2.65;;
10479;SDS011;12789;42.610;23.040;2023-09-08T13:10:15;3.70;;;2.50;;
10479;SDS011;12789;42.610;23.040;2023-09-08T13:13:44;6.50;;;2.60;;
10479;SDS011;12789;42.610;23.040;2023-09-08T13:17:11;4.80;;;2.70;;
10479;SDS011;12789;42.610;23.040;2023-09-08T13:20:37;7.53;;;2.58;;
10479;SDS011;12789;42.610;23.040;2023-09-08T13:24:06;7.28;;;2.90;;
10479;SDS011;12789;42.610;23.040;2023-09-08T13:27:32;2.92;;;2.60;;
10479;SDS011;12789;42.610;23.040;2023-09-08T13:30:58;4.25;;;2.85;;
10479;SDS011;12789;42.610;23.040;2023-09-08T13:34:24;4.32;;;2.80;;
10479;SDS011;12789;42.610;23.040;2023-09-08T13:37:50;6.35;;;2.53;;
10479;SDS011;12789;42.610;23.040;2023-09-08T13:41:18;5.85;;;2.67;;
10479;SDS011;12789;42.610;23.040;2023-09-08T13:44:43;2.97;;;2.65;;
10479;SDS011;12789;42.610;23.040;2023-09-08T13:48:09;4.40;;;2.50;;
10479;SDS011;12789;42.610;23.040;2023-09-08T13:51:36;6.38;;;2.63;;
10479;SDS011;12789;42.610;23.040;2023-09-08T13:55:05;7.32;;;2.75;;
10479;SDS011;12789;42.610;23.040;2023-09-08T13:58:34;7.75;;;2.63;;
10479;SDS011;12789;42.610;23.040;2023-09-08T14:02:00;2.60;;;2.40;;
10479;SDS011;12789;42.610;23.040;2023-09-08T14:05:26;4.57;;;2.58;;
10479;SDS011;12789;42.610;23.040;2023-09-08T14:08:56;3.17;;;2.60;;
10479;SDS011;12789;42.610;23.040;2023-09-08T14:12:23;7.63;;;2.78;;
10479;SDS011;12789;42.610;23.040;2023-09-08T14:15:50;5.57;;;2.90;;
10479;SDS011;12789;42.610;23.040;2023-09-08T14:19:15;4.45;;;3.03;;
10479;SDS011;12789;42.610;23.040;2023-09-08T14:22:41;2.92;;;2.70;;
10479;SDS011;12789;42.610;23.040;2023-09-08T14:26:07;3.67;;;2.40;;
10479;SDS011;12789;42.610;23.040;2023-09-08T14:29:34;6.45;;;2.75;;
10479;SDS011;12789;42.610;23.040;2023-09-08T14:33:01;3.63;;;2.88;;
10479;SDS011;12789;42.610;23.040;2023-09-08T14:36:27;7.07;;;2.88;;
10479;SDS011;12789;42.610;23.040;2023-09-08T14:39:53;3.33;;;2.78;;
10479;SDS011;12789;42.610;23.040;2023-09-08T14:43:22;3.33;;;2.83;;
10479;SDS011;12789;42.610;23.040;2023-09-08T14:46:48;2.97;;;2.67;;
10479;SDS011;12789;42.610;23.040;2023-09-08T14:50:15;3.60;;;2.50;;
10479;SDS011;12789;42.610;23.040;2023-09-08T14:53:42;4.95;;;2.80;;
10479;SDS011;12789;42.610;23.040;2023-09-08T14:57:07;8.40;;;3.17;;
10479;SDS011;12789;42.610;23.040;2023-09-08T15:00:34;9.25;;;3.13;;
10479;SDS011;12789;42.610;23.040;2023-09-08T15:04:01;5.97;;;3.17;;
10479;SDS011;12789;42.610;23.040;2023-09-08T15:07:31;5.60;;;2.75;;
10479;SDS011;12789;42.610;23.040;2023-09-08T15:10:56;3.28;;;2.90;;
10479;SDS011;12789;42.610;23.040;2023-09-08T15:14:22;6.85;;;3.58;;
10479;SDS011;12789;42.610;23.040;2023-09-08T15:17:50;6.82;;;3.30;;
10479;SDS011;12789;42.610;23.040;2023-09-08T15:21:17;7.45;;;3.25;;
10479;SDS011;12789;42.610;23.040;2023-09-08T15:24:44;4.50;;;2.88;;
10479;SDS011;12789;42.610;23.040;2023-09-08T15:28:17;4.05;;;2.88;;
10479;SDS011;12789;42.610;23.040;2023-09-08T15:31:45;5.57;;;3.30;;
10479;SDS011;12789;42.610;23.040;2023-09-08T15:35:14;4.03;;;3.15;;
10479;SDS011;12789;42.610;23.040;2023-09-08T15:38:42;5.72;;;3.05;;
10479;SDS011;12789;42.610;23.040;2023-09-08T15:42:09;3.25;;;2.95;;
10479;SDS011;12789;42.610;23.040;2023-09-08T15:45:34;4.43;;;3.10;;
10479;SDS011;12789;42.610;23.040;2023-09-08T15:49:00;4.90;;;2.95;;
10479;SDS011;12789;42.610;23.040;2023-09-08T15:52:28;3.70;;;2.60;;
10479;SDS011;12789;42.610;23.040;2023-09-08T15:55:54;9.15;;;2.90;;
10479;SDS011;12789;42.610;23.040;2023-09-08T15:59:21;3.92;;;3.03;;
10479;SDS011;12789;42.610;23.040;2023-09-08T16:02:49;7.78;;;2.47;;
10479;SDS011;12789;42.610;23.040;2023-09-08T16:06:14;3.88;;;2.42;;
10479;SDS011;12789;42.610;23.040;2023-09-08T16:09:39;7.20;;;2.88;;
10479;SDS011;12789;42.610;23.040;2023-09-08T16:13:05;5.22;;;2.67;;
10479;SDS011;12789;42.610;23.040;2023-09-08T16:16:35;6.90;;;2.92;;
10479;SDS011;12789;42.610;23.040;2023-09-08T16:20:01;7.10;;;2.90;;
10479;SDS011;12789;42.610;23.040;2023-09-08T16:23:26;4.43;;;3.20;;
10479;SDS011;12789;42.610;23.040;2023-09-08T16:26:52;8.27;;;3.03;;
10479;SDS011;12789;42.610;23.040;2023-09-08T16:30:20;5.55;;;3.00;;
10479;SDS011;12789;42.610;23.040;2023-09-08T16:33:48;5.50;;;3.10;;
10479;SDS011;12789;42.610;23.040;2023-09-08T16:37:14;4.60;;;2.70;;
10479;SDS011;12789;42.610;23.040;2023-09-08T16:40:40;4.20;;;3.20;;
10479;SDS011;12789;42.610;23.040;2023-09-08T16:44:08;5.03;;;2.65;;
10479;SDS011;12789;42.610;23.040;2023-09-08T16:47:37;2.83;;;2.63;;
10479;SDS011;12789;42.610;23.040;2023-09-08T16:51:04;3.30;;;2.90;;
10479;SDS011;12789;42.610;23.040;2023-09-08T16:54:31;3.45;;;3.15;;
10479;SDS011;12789;42.610;23.040;2023-09-08T16:57:57;7.43;;;2.88;;
10479;SDS011;12789;42.610;23.040;2023-09-08T17:01:22;3.92;;;2.58;;
10479;SDS011;12789;42.610;23.040;2023-09-08T17:04:52;4.47;;;3.25;;
10479;SDS011;12789;42.610;23.040;2023-09-08T17:08:19;4.05;;;3.10;;
10479;SDS011;12789;42.610;23.040;2023-09-08T17:11:45;6.90;;;3.22;;
10479;SDS011;12789;42.610;23.040;2023-09-08T17:15:12;3.22;;;2.90;;
10479;SDS011;12789;42.610;23.040;2023-09-08T17:18:37;4.63;;;3.30;;
10479;SDS011;12789;42.610;23.040;2023-09-08T17:22:05;3.90;;;2.70;;
10479;SDS011;12789;42.610;23.040;2023-09-08T17:29:14;6.45;;;3.17;;
10479;SDS011;12789;42.610;23.040;2023-09-08T17:32:40;3.08;;;2.80;;
10479;SDS011;12789;42.610;23.040;2023-09-08T17:36:05;6.45;;;3.08;;
10479;SDS011;12789;42.610;23.040;2023-09-08T17:39:32;7.47;;;3.20;;
10479;SDS011;12789;42.610;23.040;2023-09-08T17:42:59;4.18;;;3.10;;
10479;SDS011;12789;42.610;23.040;2023-09-08T17:46:24;5.95;;;3.13;;
10479;SDS011;12789;42.610;23.040;2023-09-08T17:49:50;6.68;;;3.35;;
10479;SDS011;12789;42.610;23.040;2023-09-08T17:53:15;3.30;;;3.00;;
10479;SDS011;12789;42.610;23.040;2023-09-08T17:56:42;5.43;;;3.20;;
10479;SDS011;12789;42.610;23.040;2023-09-08T18:00:12;5.93;;;2.80;;
10479;SDS011;12789;42.610;23.040;2023-09-08T18:03:37;5.72;;;3.30;;
10479;SDS011;12789;42.610;23.040;2023-09-08T18:07:03;5.82;;;2.88;;
10479;SDS011;12789;42.610;23.040;2023-09-08T18:10:29;2.90;;;2.70;;
10479;SDS011;12789;42.610;23.040;2023-09-08T18:13:55;9.73;;;3.25;;
10479;SDS011;12789;42.610;23.040;2023-09-08T18:17:22;3.05;;;2.75;;
10479;SDS011;12789;42.610;23.040;2023-09-08T18:20:55;4.13;;;2.95;;
10479;SDS011;12789;42.610;23.040;2023-09-08T18:24:31;7.13;;;3.28;;
10479;SDS011;12789;42.610;23.040;2023-09-08T18:27:58;9.98;;;2.75;;
10479;SDS011;12789;42.610;23.040;2023-09-08T18:31:28;6.05;;;3.00;;
10479;SDS011;12789;42.610;23.040;2023-09-08T18:34:56;16.75;;;13.27;;
10479;SDS011;12789;42.610;23.040;2023-09-08T18:38:23;5.35;;;3.28;;
10479;SDS011;12789;42.610;23.040;2023-09-08T18:41:48;4.15;;;3.15;;
10479;SDS011;12789;42.610;23.040;2023-09-08T18:45:16;3.97;;;3.53;;
10479;SDS011;12789;42.610;23.040;2023-09-08T18:48:44;3.58;;;2.97;;
10479;SDS011;12789;42.610;23.040;2023-09-08T18:52:10;4.18;;;3.10;;
10479;SDS011;12789;42.610;23.040;2023-09-08T18:55:35;4.85;;;3.38;;
10479;SDS011;12789;42.610;23.040;2023-09-08T18:59:03;6.93;;;3.47;;
10479;SDS011;12789;42.610;23.040;2023-09-08T19:02:30;5.18;;;3.70;;
10479;SDS011;12789;42.610;23.040;2023-09-08T19:05:59;6.57;;;5.63;;
10479;SDS011;12789;42.610;23.040;2023-09-08T19:09:26;15.40;;;12.57;;
10479;SDS011;12789;42.610;23.040;2023-09-08T19:12:53;7.80;;;6.18;;
10479;SDS011;12789;42.610;23.040;2023-09-08T19:16:19;5.60;;;3.40;;
10479;SDS011;12789;42.610;23.040;2023-09-08T19:19:47;3.72;;;3.42;;
10479;SDS011;12789;42.610;23.040;2023-09-08T19:23:14;6.13;;;3.88;;
10479;SDS011;12789;42.610;23.040;2023-09-08T19:26:45;5.07;;;3.50;;
10479;SDS011;12789;42.610;23.040;2023-09-08T19:30:14;3.45;;;3.03;;
10479;SDS011;12789;42.610;23.040;2023-09-08T19:33:41;4.20;;;3.55;;
10479;SDS011;12789;42.610;23.040;2023-09-08T19:37:07;6.05;;;3.50;;
10479;SDS011;12789;42.610;23.040;2023-09-08T19:40:42;5.28;;;3.40;;
10479;SDS011;12789;42.610;23.040;2023-09-08T19:44:09;4.45;;;3.05;;
10479;SDS011;12789;42.610;23.040;2023-09-08T19:47:36;4.32;;;3.00;;
10479;SDS011;12789;42.610;23.040;2023-09-08T19:51:03;6.97;;;3.30;;
10479;SDS011;12789;42.610;23.040;2023-09-08T19:54:29;3.92;;;3.05;;
10479;SDS011;12789;42.610;23.040;2023-09-08T19:58:00;5.53;;;3.83;;
10479;SDS011;12789;42.610;23.040;2023-09-08T20:01:25;8.00;;;6.55;;
10479;SDS011;12789;42.610;23.040;2023-09-08T20:04:52;6.03;;;3.97;;
10479;SDS011;12789;42.610;23.040;2023-09-08T20:08:20;8.00;;;5.50;;
10479;SDS011;12789;42.610;23.040;2023-09-08T20:11:46;8.43;;;4.72;;
10479;SDS011;12789;42.610;23.040;2023-09-08T20:15:14;6.15;;;3.63;;
10479;SDS011;12789;42.610;23.040;2023-09-08T20:18:42;6.38;;;3.80;;
10479;SDS011;12789;42.610;23.040;2023-09-08T20:22:07;6.18;;;3.70;;
10479;SDS011;12789;42.610;23.040;2023-09-08T20:25:39;7.30;;;3.78;;
10479;SDS011;12789;42.610;23.040;2023-09-08T20:29:04;6.00;;;3.72;;
10479;SDS011;12789;42.610;23.040;2023-09-08T20:32:32;7.25;;;3.75;;
10479;SDS011;12789;42.610;23.040;2023-09-08T20:36:16;4.22;;;3.83;;
10479;SDS011;12789;42.610;23.040;2023-09-08T20:39:41;6.22;;;3.78;;
10479;SDS011;12789;42.610;23.040;2023-09-08T20:43:13;3.85;;;3.55;;